createdAt,value
2023-05-17T00:00:56.925Z,10.60
2023-05-17T00:03:25.117Z,10.60
2023-05-17T00:05:53.354Z,10.60
2023-05-17T00:08:21.606Z,10.60
2023-05-17T00:10:51.176Z,10.60
2023-05-17T00:13:19.368Z,10.60
2023-05-17T00:15:47.599Z,10.60
2023-05-17T00:18:15.855Z,10.50
2023-05-17T00:20:44.620Z,10.50
2023-05-17T00:23:12.842Z,10.50
2023-05-17T00:25:41.160Z,10.40
2023-05-17T00:28:10.732Z,10.50
2023-05-17T00:30:38.946Z,10.50
2023-05-17T00:33:07.276Z,10.50
2023-05-17T00:35:35.643Z,10.50
2023-05-17T00:38:04.307Z,10.50
2023-05-17T00:40:32.525Z,10.60
2023-05-17T00:43:00.718Z,10.60
2023-05-17T00:45:30.593Z,10.60
2023-05-17T00:47:59.020Z,10.60
2023-05-17T00:50:27.453Z,10.60
2023-05-17T00:52:56.693Z,10.60
2023-05-17T00:55:25.013Z,10.60
2023-05-17T00:57:53.261Z,10.50
2023-05-17T01:00:21.649Z,10.30
2023-05-17T01:02:51.868Z,10.70
2023-05-17T01:05:20.226Z,10.50
2023-05-17T01:07:48.397Z,10.50
2023-05-17T01:10:16.641Z,10.50
2023-05-17T01:12:57.047Z,10.50
2023-05-17T01:15:29.081Z,10.50
2023-05-17T01:18:10.639Z,10.40
2023-05-17T01:20:41.634Z,10.30
2023-05-17T01:23:29.124Z,10.20
2023-05-17T01:26:05.947Z,10.00
2023-05-17T01:28:37.947Z,10.10
2023-05-17T01:31:06.547Z,10.20
2023-05-17T01:33:35.792Z,10.20
2023-05-17T01:36:04.011Z,10.20
2023-05-17T01:38:32.237Z,10.20
2023-05-17T01:41:06.604Z,10.30
2023-05-17T01:43:46.229Z,10.30
2023-05-17T01:46:19.646Z,10.20
2023-05-17T01:48:54.311Z,10.20
2023-05-17T01:51:29.715Z,10.20
2023-05-17T01:54:02.965Z,10.20
2023-05-17T01:56:35.813Z,10.20
2023-05-17T01:59:08.527Z,10.20
2023-05-17T02:01:37.388Z,10.20
2023-05-17T02:04:06.038Z,10.20
2023-05-17T02:06:34.298Z,10.10
2023-05-17T02:09:03.225Z,10.10
2023-05-17T02:11:32.378Z,10.10
2023-05-17T02:14:00.650Z,10.10
2023-05-17T02:16:30.271Z,10.10
2023-05-17T02:18:58.589Z,10.10
2023-05-17T02:21:26.829Z,10.10
2023-05-17T02:23:54.994Z,10.10
2023-05-17T02:26:23.241Z,10.10
2023-05-17T02:28:51.442Z,10.00
2023-05-17T02:31:19.623Z,10.00
2023-05-17T02:33:49.327Z,10.00
2023-05-17T02:36:17.636Z,10.10
2023-05-17T02:38:45.835Z,10.00
2023-05-17T02:41:14.072Z,10.00
2023-05-17T02:43:42.246Z,10.00
2023-05-17T02:46:10.640Z,10.00
2023-05-17T02:48:38.839Z,10.00
2023-05-17T02:51:08.487Z,10.00
2023-05-17T02:53:36.665Z,9.80
2023-05-17T02:56:04.914Z,9.80
2023-05-17T02:58:33.113Z,9.70
2023-05-17T03:01:01.457Z,9.60
2023-05-17T03:03:29.760Z,9.60
2023-05-17T03:06:02.034Z,9.60
2023-05-17T03:08:32.417Z,9.70
2023-05-17T03:11:00.781Z,9.70
2023-05-17T03:13:29.016Z,9.70
2023-05-17T03:15:57.185Z,9.70
2023-05-17T03:18:25.598Z,9.60
2023-05-17T03:20:53.888Z,9.60
2023-05-17T03:23:22.260Z,9.50
2023-05-17T03:25:51.920Z,9.50
2023-05-17T03:28:20.653Z,9.50
2023-05-17T03:30:48.932Z,9.50
2023-05-17T03:33:17.237Z,9.50
2023-05-17T03:35:46.911Z,9.50
2023-05-17T03:38:15.150Z,9.50
2023-05-17T03:40:43.369Z,9.50
2023-05-17T03:43:13.436Z,9.50
2023-05-17T03:45:41.655Z,9.50
2023-05-17T03:48:09.894Z,9.50
2023-05-17T03:50:39.121Z,9.40
2023-05-17T03:53:07.305Z,9.40
2023-05-17T03:55:35.541Z,9.30
2023-05-17T03:58:04.142Z,9.30
2023-05-17T04:00:33.806Z,9.30
2023-05-17T04:03:02.119Z,9.40
2023-05-17T04:05:30.713Z,9.40
2023-05-17T04:07:59.080Z,9.50
2023-05-17T04:10:27.277Z,9.40
2023-05-17T04:12:55.473Z,9.50
2023-05-17T04:15:23.755Z,9.40
2023-05-17T04:17:53.456Z,9.50
2023-05-17T04:20:22.095Z,9.50
2023-05-17T04:22:50.343Z,9.50
2023-05-17T04:25:18.918Z,9.50
2023-05-17T04:27:47.493Z,9.50
2023-05-17T04:30:16.153Z,9.60
2023-05-17T04:32:44.753Z,9.60
2023-05-17T04:35:14.581Z,9.60
2023-05-17T04:37:42.800Z,9.60
2023-05-17T04:40:12.931Z,9.60
2023-05-17T04:42:41.332Z,9.60
2023-05-17T04:45:10.521Z,9.60
2023-05-17T04:47:38.810Z,9.60
2023-05-17T04:50:07.665Z,9.70
2023-05-17T04:52:37.346Z,9.70
2023-05-17T04:55:06.281Z,9.60
2023-05-17T04:57:34.478Z,9.60
2023-05-17T05:00:06.872Z,9.50
2023-05-17T05:02:35.106Z,9.50
2023-05-17T05:05:05.063Z,9.60
2023-05-17T05:07:33.391Z,9.60
2023-05-17T05:10:03.048Z,9.60
2023-05-17T05:12:31.242Z,9.60
2023-05-17T05:15:00.968Z,9.60
2023-05-17T05:17:30.535Z,9.70
2023-05-17T05:19:59.159Z,9.80
2023-05-17T05:22:27.751Z,9.80
2023-05-17T05:24:56.474Z,9.80
2023-05-17T05:27:26.120Z,9.80
2023-05-17T05:29:55.760Z,9.80
2023-05-17T05:32:23.968Z,9.90
2023-05-17T05:34:52.163Z,9.90
2023-05-17T05:37:20.727Z,9.90
2023-05-17T05:39:49.054Z,10.00
2023-05-17T05:42:17.243Z,10.10
2023-05-17T05:44:46.816Z,10.10
2023-05-17T05:47:15.055Z,10.10
2023-05-17T05:49:43.234Z,10.20
2023-05-17T05:52:11.421Z,10.30
2023-05-17T05:54:39.674Z,10.40
2023-05-17T05:57:07.866Z,10.40
2023-05-17T05:59:36.053Z,10.40
2023-05-17T06:02:05.855Z,10.50
2023-05-17T06:04:44.608Z,10.70
2023-05-17T06:07:14.159Z,10.70
2023-05-17T06:09:42.744Z,10.90
2023-05-17T06:12:12.063Z,11.00
2023-05-17T06:14:40.306Z,11.00
2023-05-17T06:17:09.953Z,11.10
2023-05-17T06:19:38.260Z,11.20
2023-05-17T06:22:06.688Z,11.40
2023-05-17T06:24:34.869Z,11.60
2023-05-17T06:27:03.226Z,11.70
2023-05-17T06:29:31.615Z,11.80
2023-05-17T06:31:59.923Z,11.90
2023-05-17T06:34:29.497Z,12.00
2023-05-17T06:36:57.725Z,12.10
2023-05-17T06:39:25.989Z,12.20
2023-05-17T06:41:54.204Z,12.30
2023-05-17T06:44:22.454Z,12.40
2023-05-17T06:46:50.699Z,12.80
2023-05-17T06:49:18.915Z,13.20
2023-05-17T06:51:49.214Z,13.50
2023-05-17T06:54:19.697Z,13.90
2023-05-17T06:56:47.947Z,14.30
2023-05-17T06:59:16.652Z,14.60
2023-05-17T07:01:44.862Z,14.90
2023-05-17T07:04:13.284Z,15.10
2023-05-17T07:06:44.604Z,15.50
2023-05-17T07:09:14.418Z,16.20
2023-05-17T07:11:42.660Z,16.80
2023-05-17T07:14:10.868Z,17.80
2023-05-17T07:16:39.046Z,18.20
2023-05-17T07:19:07.552Z,18.50
2023-05-17T07:21:35.909Z,18.50
2023-05-17T07:24:04.361Z,18.60
2023-05-17T07:26:33.979Z,18.70
2023-05-17T07:29:02.201Z,18.90
2023-05-17T07:31:30.628Z,19.10
2023-05-17T07:33:58.886Z,18.80
2023-05-17T07:36:30.521Z,18.40
2023-05-17T07:38:58.949Z,17.90
2023-05-17T07:41:27.331Z,17.60
2023-05-17T07:43:56.873Z,17.20
2023-05-17T07:46:25.096Z,16.70
2023-05-17T07:48:55.775Z,16.40
2023-05-17T07:51:25.729Z,16.20
2023-05-17T07:53:53.911Z,16.00
2023-05-17T07:56:22.164Z,15.70
2023-05-17T07:58:50.833Z,15.50
2023-05-17T08:01:20.647Z,15.30
2023-05-17T08:03:48.964Z,15.00
2023-05-17T08:06:17.362Z,14.70
2023-05-17T08:08:46.133Z,14.50
2023-05-17T08:11:15.416Z,14.30
2023-05-17T08:13:44.359Z,14.20
2023-05-17T08:16:14.593Z,14.10
2023-05-17T08:18:44.961Z,14.00
2023-05-17T08:21:13.412Z,14.00
2023-05-17T08:23:42.708Z,13.90
2023-05-17T08:26:12.595Z,14.00
2023-05-17T08:28:40.817Z,13.90
2023-05-17T08:31:08.983Z,14.00
2023-05-17T08:33:37.330Z,14.20
2023-05-17T08:36:08.310Z,14.30
2023-05-17T08:38:37.320Z,14.30
2023-05-17T08:41:05.878Z,14.50
2023-05-17T08:43:34.162Z,14.60
2023-05-17T08:46:04.220Z,14.60
2023-05-17T08:48:33.452Z,14.60
2023-05-17T08:51:01.700Z,14.70
2023-05-17T08:53:31.392Z,14.70
2023-05-17T08:56:01.578Z,14.60
2023-05-17T08:58:44.740Z,14.60
2023-05-17T09:01:25.972Z,14.50
2023-05-17T09:03:55.652Z,14.60
2023-05-17T09:06:25.501Z,14.60
2023-05-17T09:08:56.017Z,14.70
2023-05-17T09:11:28.841Z,14.70
2023-05-17T09:14:01.105Z,14.70
2023-05-17T09:16:30.405Z,14.60
2023-05-17T09:18:59.860Z,14.70
2023-05-17T09:21:29.778Z,14.90
2023-05-17T09:26:42.382Z,15.30
2023-05-17T09:29:11.741Z,15.50
2023-05-17T09:31:40.343Z,15.70
2023-05-17T09:34:09.342Z,15.80
2023-05-17T09:36:39.475Z,15.80
2023-05-17T09:39:13.701Z,16.00
2023-05-17T09:41:45.290Z,16.10
2023-05-17T09:44:15.117Z,16.00
2023-05-17T09:46:45.934Z,16.00
2023-05-17T09:49:14.526Z,16.20
2023-05-17T09:51:44.130Z,16.30
2023-05-17T09:54:14.341Z,16.50
2023-05-17T09:56:43.206Z,16.40
2023-05-17T09:59:16.224Z,16.50
2023-05-17T10:01:46.116Z,16.60
2023-05-17T10:04:20.468Z,16.80
2023-05-17T10:06:52.387Z,16.90
2023-05-17T10:09:24.127Z,17.10
2023-05-17T10:11:53.423Z,17.20
2023-05-17T10:14:28.250Z,17.50
2023-05-17T10:16:57.320Z,18.00
2023-05-17T10:19:27.259Z,18.40
2023-05-17T10:22:00.339Z,18.70
2023-05-17T10:24:38.320Z,18.60
2023-05-17T10:27:08.349Z,18.60
2023-05-17T10:29:39.476Z,18.60
2023-05-17T10:32:09.260Z,18.50
2023-05-17T10:34:38.546Z,18.50
2023-05-17T10:37:07.795Z,18.10
2023-05-17T10:39:39.045Z,18.10
2023-05-17T10:44:41.108Z,17.90
2023-05-17T10:47:09.888Z,17.60
2023-05-17T10:49:41.489Z,17.50
2023-05-17T10:52:14.323Z,17.50
2023-05-17T10:54:45.619Z,17.30
2023-05-17T10:57:22.275Z,17.00
2023-05-17T11:00:01.609Z,16.90
2023-05-17T11:02:32.224Z,17.00
2023-05-17T11:05:02.363Z,17.10
2023-05-17T11:07:33.927Z,17.20
2023-05-17T11:10:12.235Z,17.50
2023-05-17T11:12:42.996Z,17.60
2023-05-17T11:15:12.591Z,17.90
2023-05-17T11:17:52.583Z,18.00
2023-05-17T11:20:35.354Z,18.10
2023-05-17T11:23:05.493Z,18.00
2023-05-17T11:25:36.999Z,18.00
2023-05-17T11:28:10.102Z,18.10
2023-05-17T11:30:43.541Z,18.40
2023-05-17T11:33:21.079Z,18.40
2023-05-17T11:35:57.977Z,18.50
2023-05-17T11:38:30.523Z,18.60
2023-05-17T11:41:26.444Z,18.50
2023-05-17T11:43:56.108Z,18.30
2023-05-17T11:46:25.143Z,18.10
2023-05-17T11:48:54.488Z,18.20
2023-05-17T11:51:25.018Z,18.20
2023-05-17T11:53:56.124Z,17.90
2023-05-17T11:56:41.990Z,17.70
2023-05-17T11:59:11.710Z,17.60
2023-05-17T12:01:47.405Z,17.50
2023-05-17T12:04:16.212Z,17.00
2023-05-17T12:06:46.284Z,16.90
2023-05-17T12:09:17.859Z,16.90
2023-05-17T12:11:47.928Z,16.70
2023-05-17T12:14:17.608Z,16.50
2023-05-17T12:16:48.650Z,16.50
2023-05-17T12:19:20.591Z,16.80
2023-05-17T12:21:49.111Z,17.00
2023-05-17T12:24:17.665Z,17.30
2023-05-17T12:26:48.352Z,17.50
2023-05-17T12:29:22.813Z,17.60
2023-05-17T12:31:53.154Z,17.80
2023-05-17T12:34:21.750Z,17.90
2023-05-17T12:36:50.689Z,18.20
2023-05-17T12:39:23.722Z,18.30
2023-05-17T12:41:53.971Z,18.60
2023-05-17T12:44:22.445Z,18.70
2023-05-17T12:46:54.014Z,18.80
2023-05-17T12:49:23.317Z,18.60
2023-05-17T12:51:51.878Z,18.50
2023-05-17T12:54:30.071Z,18.50
2023-05-17T12:56:59.711Z,18.60
2023-05-17T12:59:29.300Z,18.40
2023-05-17T13:02:00.664Z,18.20
2023-05-17T13:04:33.386Z,18.10
2023-05-17T13:07:03.180Z,18.20
2023-05-17T13:09:32.534Z,18.30
2023-05-17T13:12:06.052Z,18.40
2023-05-17T13:14:35.903Z,18.30
2023-05-17T13:17:04.922Z,18.30
2023-05-17T13:19:33.604Z,18.10
2023-05-17T13:22:01.935Z,17.90
2023-05-17T13:24:32.026Z,17.70
2023-05-17T13:27:01.807Z,17.90
2023-05-17T13:29:38.693Z,17.60
2023-05-17T13:32:09.553Z,17.40
2023-05-17T13:34:38.000Z,17.50
2023-05-17T13:37:09.416Z,17.60
2023-05-17T13:39:39.676Z,17.90
2023-05-17T13:42:09.683Z,18.00
2023-05-17T13:44:38.497Z,17.90
2023-05-17T13:47:07.083Z,17.90
2023-05-17T13:49:35.548Z,18.00
2023-05-17T13:52:04.159Z,18.10
2023-05-17T13:54:32.429Z,18.30
2023-05-17T13:57:00.634Z,18.50
2023-05-17T13:59:30.205Z,18.60
2023-05-17T14:01:58.939Z,18.80
2023-05-17T14:04:27.204Z,18.70
2023-05-17T14:06:55.452Z,18.70
2023-05-17T14:09:23.669Z,18.80
2023-05-17T14:11:51.908Z,18.80
2023-05-17T14:14:20.204Z,18.80
2023-05-17T14:16:49.804Z,18.70
2023-05-17T14:19:18.119Z,18.70
2023-05-17T14:21:46.376Z,18.70
2023-05-17T14:24:14.744Z,18.60
2023-05-17T14:26:43.238Z,18.60
2023-05-17T14:29:11.451Z,18.60
2023-05-17T14:31:39.652Z,18.60
2023-05-17T14:34:09.316Z,18.50
2023-05-17T14:36:38.422Z,18.40
2023-05-17T14:39:06.746Z,18.20
2023-05-17T14:41:35.016Z,18.00
2023-05-17T14:44:03.204Z,17.90
2023-05-17T14:46:31.593Z,17.80
2023-05-17T14:48:59.845Z,17.70
2023-05-17T14:51:29.465Z,17.60
2023-05-17T14:53:58.093Z,17.50
2023-05-17T14:56:26.477Z,17.40
2023-05-17T14:58:54.763Z,17.30
2023-05-17T15:01:23.319Z,17.40
2023-05-17T15:03:51.858Z,17.40
2023-05-17T15:06:24.704Z,17.50
2023-05-17T15:08:54.974Z,17.50
2023-05-17T15:11:23.757Z,17.40
2023-05-17T15:13:51.963Z,17.40
2023-05-17T15:16:21.188Z,17.40
2023-05-17T15:18:49.541Z,17.50
2023-05-17T15:21:19.112Z,17.60
2023-05-17T15:23:50.740Z,17.70
2023-05-17T15:26:20.348Z,17.80
2023-05-17T15:28:49.985Z,17.70
2023-05-17T15:31:21.387Z,17.60
2023-05-17T15:33:49.640Z,17.40
2023-05-17T15:36:18.152Z,17.20
2023-05-17T15:38:46.507Z,17.20
2023-05-17T15:41:16.811Z,17.10
2023-05-17T15:43:46.424Z,17.00
2023-05-17T15:46:14.730Z,16.80
2023-05-17T15:48:43.034Z,16.60
2023-05-17T15:51:11.296Z,16.50
2023-05-17T15:53:39.719Z,16.60
2023-05-17T15:56:10.153Z,16.60
2023-05-17T15:58:38.718Z,16.40
2023-05-17T16:01:08.423Z,16.30
2023-05-17T16:03:36.909Z,16.30
2023-05-17T16:06:05.867Z,16.40
2023-05-17T16:08:34.251Z,16.40
2023-05-17T16:11:02.855Z,16.30
2023-05-17T16:13:31.348Z,16.30
2023-05-17T16:16:00.193Z,16.40
2023-05-17T16:18:31.429Z,16.20
2023-05-17T16:21:00.391Z,16.20
2023-05-17T16:23:28.983Z,16.10
2023-05-17T16:25:57.459Z,16.00
2023-05-17T16:28:25.808Z,15.90
2023-05-17T16:30:54.505Z,15.70
2023-05-17T16:33:23.008Z,15.70
2023-05-17T16:35:52.694Z,15.70
2023-05-17T16:38:21.073Z,15.80
2023-05-17T16:40:49.366Z,15.70
2023-05-17T16:43:17.574Z,15.60
2023-05-17T16:45:46.464Z,15.60
2023-05-17T16:48:15.643Z,15.60
2023-05-17T16:50:44.206Z,15.50
2023-05-17T16:53:13.810Z,15.50
2023-05-17T16:55:42.228Z,15.40
2023-05-17T16:58:10.577Z,15.40
2023-05-17T17:00:38.882Z,15.30
2023-05-17T17:03:09.538Z,15.30
2023-05-17T17:05:38.558Z,15.20
2023-05-17T17:08:06.847Z,15.10
2023-05-17T17:10:36.748Z,15.00
2023-05-17T17:13:05.034Z,14.90
2023-05-17T17:15:33.268Z,14.90
2023-05-17T17:18:01.788Z,14.90
2023-05-17T17:20:30.656Z,14.90
2023-05-17T17:22:59.121Z,14.90
2023-05-17T17:25:28.099Z,14.80
2023-05-17T17:27:57.779Z,14.70
2023-05-17T17:30:26.216Z,14.70
2023-05-17T17:32:54.544Z,14.60
2023-05-17T17:35:23.112Z,14.60
2023-05-17T17:37:53.104Z,14.60
2023-05-17T17:40:21.801Z,14.50
2023-05-17T17:42:50.309Z,14.40
2023-05-17T17:45:19.932Z,14.30
2023-05-17T17:47:48.168Z,14.30
2023-05-17T17:50:16.421Z,14.10
2023-05-17T17:52:45.273Z,14.10
2023-05-17T17:55:13.729Z,14.00
2023-05-17T17:57:41.980Z,14.00
2023-05-17T18:00:12.127Z,13.90
2023-05-17T18:02:41.988Z,13.80
2023-05-17T18:05:11.460Z,13.80
2023-05-17T18:07:39.821Z,13.70
2023-05-17T18:10:09.107Z,13.70
2023-05-17T18:12:37.380Z,13.60
2023-05-17T18:15:06.138Z,13.60
2023-05-17T18:17:34.477Z,13.60
2023-05-17T18:20:04.762Z,13.50
2023-05-17T18:22:33.466Z,13.50
2023-05-17T18:25:01.779Z,13.40
2023-05-17T18:27:30.038Z,13.30
2023-05-17T18:29:58.555Z,13.30
2023-05-17T18:32:26.869Z,13.20
2023-05-17T18:34:55.124Z,13.10
2023-05-17T18:37:24.995Z,13.10
2023-05-17T18:39:54.159Z,13.00
2023-05-17T18:42:24.947Z,13.00
2023-05-17T18:44:53.420Z,13.00
2023-05-17T18:47:23.441Z,12.90
2023-05-17T18:49:52.220Z,13.00
2023-05-17T18:52:20.504Z,12.90
2023-05-17T18:54:50.122Z,12.90
2023-05-17T18:57:18.549Z,12.80
2023-05-17T18:59:46.748Z,12.70
2023-05-17T19:02:14.937Z,12.70
2023-05-17T19:04:43.251Z,12.70
2023-05-17T19:07:11.431Z,12.70
2023-05-17T19:09:39.727Z,12.60
2023-05-17T19:12:11.016Z,12.60
2023-05-17T19:14:40.391Z,12.60
2023-05-17T19:17:10.251Z,12.60
2023-05-17T19:19:38.606Z,12.50
2023-05-17T19:22:06.987Z,12.60
2023-05-17T19:24:35.788Z,12.60
2023-05-17T19:27:04.831Z,12.50
2023-05-17T19:29:34.447Z,12.60
2023-05-17T19:32:02.806Z,12.60
2023-05-17T19:34:31.305Z,12.60
2023-05-17T19:37:00.006Z,12.60
2023-05-17T19:39:28.201Z,12.50
2023-05-17T19:41:56.780Z,12.50
2023-05-17T19:44:24.964Z,12.50
2023-05-17T19:46:54.607Z,12.40
2023-05-17T19:49:22.870Z,12.40
2023-05-17T19:51:54.072Z,12.30
2023-05-17T19:54:22.410Z,12.30
2023-05-17T19:56:50.633Z,12.30
2023-05-17T19:59:18.856Z,12.20
2023-05-17T20:01:47.133Z,12.40
2023-05-17T20:04:16.844Z,12.20
2023-05-17T20:06:45.094Z,12.20
2023-05-17T20:09:13.292Z,12.20
2023-05-17T20:11:41.550Z,12.20
2023-05-17T20:14:12.395Z,12.20
2023-05-17T20:16:40.788Z,12.20
2023-05-17T20:19:09.134Z,12.10
2023-05-17T20:21:38.823Z,12.10
2023-05-17T20:24:07.821Z,12.10
2023-05-17T20:26:37.256Z,12.00
2023-05-17T20:29:07.247Z,12.00
2023-05-17T20:31:36.513Z,11.90
2023-05-17T20:34:05.162Z,11.90
2023-05-17T20:36:33.557Z,11.90
2023-05-17T20:39:03.523Z,11.80
2023-05-17T20:41:31.737Z,11.80
2023-05-17T20:43:59.953Z,11.80
2023-05-17T20:46:29.970Z,11.70
2023-05-17T20:48:58.379Z,11.70
2023-05-17T20:51:27.421Z,11.60
2023-05-17T20:53:55.611Z,11.60
2023-05-17T20:56:25.632Z,11.60
2023-05-17T20:58:53.847Z,11.60
2023-05-17T21:01:22.613Z,11.60
2023-05-17T21:03:51.515Z,11.60
2023-05-17T21:06:19.907Z,11.50
2023-05-17T21:08:48.203Z,11.50
2023-05-17T21:11:20.993Z,11.40
2023-05-17T21:13:51.370Z,11.40
2023-05-17T21:16:19.709Z,11.30
2023-05-17T21:18:48.121Z,11.30
2023-05-17T21:21:16.448Z,11.30
2023-05-17T21:23:44.653Z,11.20
2023-05-17T21:26:12.822Z,11.20
2023-05-17T21:28:41.044Z,11.10
2023-05-17T21:31:10.767Z,11.00
2023-05-17T21:33:39.073Z,11.00
2023-05-17T21:36:07.653Z,11.00
2023-05-17T21:38:35.870Z,10.90
2023-05-17T21:41:04.057Z,10.80
2023-05-17T21:43:32.286Z,10.80
2023-05-17T21:46:00.496Z,10.80
2023-05-17T21:48:30.188Z,10.70
2023-05-17T21:50:58.382Z,10.70
2023-05-17T21:53:26.623Z,10.70
2023-05-17T21:56:02.214Z,10.70
2023-05-17T21:58:32.180Z,10.60
2023-05-17T22:01:00.649Z,10.60
2023-05-17T22:03:30.376Z,10.60
2023-05-17T22:05:58.667Z,10.60
2023-05-17T22:08:26.910Z,10.60
2023-05-17T22:10:55.733Z,10.50
2023-05-17T22:13:26.443Z,10.60
2023-05-17T22:15:57.456Z,10.60
2023-05-17T22:18:26.933Z,10.60
2023-05-17T22:20:59.313Z,10.60
2023-05-17T22:23:27.751Z,10.50
2023-05-17T22:25:57.231Z,10.60
2023-05-17T22:28:25.435Z,10.60
2023-05-17T22:30:55.045Z,10.60
2023-05-17T22:33:23.585Z,10.60
2023-05-17T22:35:53.597Z,10.60
2023-05-17T22:38:24.335Z,10.60
2023-05-17T22:40:52.570Z,10.60
2023-05-17T22:43:22.322Z,10.60
2023-05-17T22:45:51.205Z,10.50
2023-05-17T22:48:21.048Z,10.50
2023-05-17T22:50:50.621Z,10.50
2023-05-17T22:53:19.231Z,10.50
2023-05-17T22:55:48.955Z,10.50
2023-05-17T22:58:17.468Z,10.50
2023-05-17T23:00:45.954Z,10.50
2023-05-17T23:03:14.703Z,10.50
2023-05-17T23:05:43.346Z,10.50
2023-05-17T23:08:12.965Z,10.50
2023-05-17T23:10:41.488Z,10.50
2023-05-17T23:13:11.150Z,10.50
2023-05-17T23:15:40.835Z,10.50
2023-05-17T23:18:09.260Z,10.50
2023-05-17T23:20:37.568Z,10.50
2023-05-17T23:23:08.422Z,10.50
2023-05-17T23:25:37.345Z,10.50
2023-05-17T23:28:05.844Z,10.60
2023-05-17T23:30:38.432Z,10.60
2023-05-17T23:33:06.711Z,10.60
2023-05-17T23:35:35.025Z,10.50
2023-05-17T23:38:04.210Z,10.50
2023-05-17T23:40:32.725Z,10.40
2023-05-17T23:43:00.909Z,10.40
2023-05-17T23:45:29.960Z,10.30
2023-05-17T23:48:00.532Z,10.30
2023-05-17T23:50:28.972Z,10.20
2023-05-17T23:52:57.187Z,10.20
2023-05-17T23:55:25.428Z,10.10
2023-05-17T23:57:53.667Z,10.10
